Time;durP1;ratioP1;P1;durP2;ratioP2;P2;SDS_P1;SDS_P2;PMS_P1;PMS_P2;Temp;Humidity;BMP_temperature;BMP_pressure;BME280_temperature;BME280_humidity;BME280_pressure;Samples;Min_cycle;Max_cycle;Signal;HPM_P1;HPM_P2
2022/09/10 00:01:28;;;;;;;19.83;14.82;;;;;;;;;;5032306;28;20462;-66
2022/09/10 00:03:55;;;;;;;18.58;13.98;;;;;;;;;;5024656;28;20168;-66
2022/09/10 00:06:24;;;;;;;20.98;14.95;;;;;;;;;;5036761;28;20033;-66
2022/09/10 00:08:50;;;;;;;19.37;14.17;;;;;;;;;;5018936;28;20065;-66
2022/09/10 00:11:16;;;;;;;18.35;12.93;;;;;;;;;;5035279;28;20338;-66
2022/09/10 00:13:42;;;;;;;19.25;14.07;;;;;;;;;;5036845;28;20036;-66
2022/09/10 00:16:09;;;;;;;17.75;13.85;;;;;;;;;;5036831;28;20030;-66
2022/09/10 00:18:34;;;;;;;20.48;14.50;;;;;;;;;;5036507;28;20111;-66
2022/09/10 00:21:03;;;;;;;17.02;13.63;;;;;;;;;;5036722;28;20072;-66
2022/09/10 00:23:28;;;;;;;17.35;13.35;;;;;;;;;;5036874;28;20132;-66
2022/09/10 00:25:55;;;;;;;20.33;14.70;;;;;;;;;;5036835;28;20092;-66
2022/09/10 00:28:21;;;;;;;21.05;15.02;;;;;;;;;;5036229;28;20387;-66
2022/09/10 00:30:48;;;;;;;16.90;13.50;;;;;;;;;;5037019;28;20096;-66
2022/09/10 00:33:15;;;;;;;18.27;14.10;;;;;;;;;;5036290;28;20389;-66
2022/09/10 00:35:40;;;;;;;20.58;15.57;;;;;;;;;;5036201;28;20051;-66
2022/09/10 00:38:06;;;;;;;25.30;16.48;;;;;;;;;;5036452;28;20029;-66
2022/09/10 00:40:32;;;;;;;22.15;16.40;;;;;;;;;;5051542;28;20412;-66
2022/09/10 00:42:58;;;;;;;21.70;15.60;;;;;;;;;;5050569;28;20033;-66
2022/09/10 00:45:28;;;;;;;20.23;15.95;;;;;;;;;;5018102;28;20079;-66
2022/09/10 00:47:58;;;;;;;23.15;16.30;;;;;;;;;;5036543;28;20369;-66
2022/09/10 00:50:25;;;;;;;23.23;16.23;;;;;;;;;;5018502;28;20385;-66
2022/09/10 00:52:52;;;;;;;21.05;16.23;;;;;;;;;;5036142;28;20037;-66
2022/09/10 00:55:17;;;;;;;24.52;16.02;;;;;;;;;;5035862;28;20053;-66
2022/09/10 00:57:45;;;;;;;24.63;17.88;;;;;;;;;;5035810;28;20029;-62
2022/09/10 01:00:11;;;;;;;27.30;18.48;;;;;;;;;;5018005;28;20430;-66
2022/09/10 01:02:36;;;;;;;25.75;17.08;;;;;;;;;;5018729;28;20091;-66
2022/09/10 01:05:04;;;;;;;21.67;15.75;;;;;;;;;;5053809;28;20046;-66
2022/09/10 01:07:32;;;;;;;18.17;12.93;;;;;;;;;;5019685;28;20037;-66
2022/09/10 01:09:59;;;;;;;17.10;13.60;;;;;;;;;;5035576;28;20029;-66
2022/09/10 01:12:37;;;;;;;19.70;14.20;;;;;;;;;;5017783;28;20029;-66
2022/09/10 01:15:08;;;;;;;18.55;13.70;;;;;;;;;;5017697;28;20370;-66
2022/09/10 01:17:56;;;;;;;20.65;14.05;;;;;;;;;;5017973;28;20469;-66
2022/09/10 01:20:44;;;;;;;16.27;13.75;;;;;;;;;;5017608;28;20436;-66
2022/09/10 01:23:27;;;;;;;19.98;14.18;;;;;;;;;;5018478;28;20143;-66
2022/09/10 01:26:24;;;;;;;18.48;13.38;;;;;;;;;;5017448;28;20066;-66
2022/09/10 01:31:52;;;;;;;17.63;13.65;;;;;;;;;;5061763;22;20568;-63
2022/09/10 01:34:22;;;;;;;16.60;12.65;;;;;;;;;;5037414;28;20028;-62
2022/09/10 01:36:50;;;;;;;15.25;12.88;;;;;;;;;;5055277;28;20025;-62
2022/09/10 01:39:18;;;;;;;17.90;13.55;;;;;;;;;;5037365;28;20112;-62
2022/09/10 01:41:43;;;;;;;17.25;13.07;;;;;;;;;;5053627;28;20033;-62
2022/09/10 01:44:10;;;;;;;15.80;12.98;;;;;;;;;;5037535;28;20036;-62
2022/09/10 01:46:43;;;;;;;17.67;13.63;;;;;;;;;;5053783;28;20040;-62
2022/09/10 01:49:41;;;;;;;18.33;13.45;;;;;;;;;;5053498;28;20059;-62
2022/09/10 01:52:30;;;;;;;16.35;13.20;;;;;;;;;;4993791;28;20041;-62
2022/09/10 01:54:55;;;;;;;15.75;12.43;;;;;;;;;;5028861;28;20037;-62
2022/09/10 01:57:31;;;;;;;15.68;13.27;;;;;;;;;;5054582;28;20039;-62
2022/09/10 02:00:08;;;;;;;17.48;13.93;;;;;;;;;;5037480;28;20121;-62
2022/09/10 02:02:41;;;;;;;20.40;14.82;;;;;;;;;;5055071;28;20481;-62
2022/09/10 02:05:07;;;;;;;21.52;14.25;;;;;;;;;;5054896;28;20036;-62
2022/09/10 02:07:34;;;;;;;18.80;14.77;;;;;;;;;;5053246;28;20021;-62
2022/09/10 02:10:01;;;;;;;20.80;14.70;;;;;;;;;;5054022;28;20369;-62
2022/09/10 02:12:30;;;;;;;;;;;;;;;;;;5055055;28;20480;-62
2022/09/10 02:15:10;;;;;;;20.90;15.15;;;;;;;;;;5054268;28;19948;-62
2022/09/10 02:17:49;;;;;;;20.38;14.85;;;;;;;;;;5054490;28;20043;-62
2022/09/10 02:20:14;;;;;;;19.95;15.57;;;;;;;;;;5036262;28;20387;-62
2022/09/10 02:22:58;;;;;;;21.63;14.20;;;;;;;;;;5056362;22;20145;-63
2022/09/10 02:25:27;;;;;;;23.05;15.32;;;;;;;;;;5032766;28;20029;-62
2022/09/10 02:27:56;;;;;;;25.33;16.15;;;;;;;;;;5034432;28;20018;-62
2022/09/10 02:30:23;;;;;;;24.08;15.98;;;;;;;;;;5049993;28;20120;-63
2022/09/10 02:32:49;;;;;;;25.33;16.85;;;;;;;;;;5049618;28;20017;-63
2022/09/10 02:35:14;;;;;;;21.52;15.57;;;;;;;;;;5032638;28;20120;-63
2022/09/10 02:37:43;;;;;;;21.98;15.60;;;;;;;;;;5032904;28;20029;-63
2022/09/10 02:40:10;;;;;;;20.52;15.32;;;;;;;;;;5033923;28;20037;-62
2022/09/10 02:42:37;;;;;;;20.15;15.70;;;;;;;;;;5032581;28;20457;-62
2022/09/10 02:45:04;;;;;;;20.80;16.40;;;;;;;;;;5032499;28;20021;-62
2022/09/10 02:47:29;;;;;;;23.25;16.90;;;;;;;;;;5032901;28;20025;-62
2022/09/10 02:49:56;;;;;;;23.00;16.83;;;;;;;;;;5050775;22;20004;-63
2022/09/10 02:52:21;;;;;;;25.33;17.67;;;;;;;;;;5054171;28;20052;-62
2022/09/10 02:54:49;;;;;;;23.70;17.33;;;;;;;;;;5072412;28;20469;-62
2022/09/10 02:57:14;;;;;;;24.92;17.80;;;;;;;;;;5074004;28;20020;-63
2022/09/10 02:59:41;;;;;;;25.05;17.38;;;;;;;;;;5075089;28;20028;-62
2022/09/10 03:02:07;;;;;;;24.50;17.83;;;;;;;;;;5058830;28;20028;-63
2022/09/10 03:04:33;;;;;;;28.52;19.27;;;;;;;;;;5073070;28;20423;-62
2022/09/10 03:06:58;;;;;;;29.98;19.30;;;;;;;;;;5073821;28;20342;-62
2022/09/10 03:09:27;;;;;;;32.63;20.67;;;;;;;;;;5055568;28;20042;-62
2022/09/10 03:11:52;;;;;;;29.33;19.50;;;;;;;;;;5055889;28;20078;-62
2022/09/10 03:14:21;;;;;;;25.17;18.42;;;;;;;;;;5073487;28;20472;-62
2022/09/10 03:16:46;;;;;;;23.15;16.83;;;;;;;;;;5055459;28;20016;-62
2022/09/10 03:19:13;;;;;;;26.85;17.08;;;;;;;;;;5055925;28;20037;-67
2022/09/10 03:21:40;;;;;;;23.23;16.80;;;;;;;;;;5055433;28;20020;-66
2022/09/10 03:24:09;;;;;;;25.50;17.17;;;;;;;;;;5072154;28;20035;-66
2022/09/10 03:26:34;;;;;;;22.70;16.55;;;;;;;;;;5073536;28;20019;-66
2022/09/10 03:29:02;;;;;;;18.95;14.75;;;;;;;;;;5055620;28;20054;-66
2022/09/10 03:31:31;;;;;;;21.98;15.40;;;;;;;;;;5055592;28;20099;-66
2022/09/10 03:33:57;;;;;;;22.80;16.13;;;;;;;;;;5072612;28;20044;-66
2022/09/10 03:36:23;;;;;;;22.52;15.88;;;;;;;;;;5072270;28;20024;-66
2022/09/10 03:38:49;;;;;;;22.60;15.70;;;;;;;;;;5071952;28;20039;-67
2022/09/10 03:41:14;;;;;;;20.95;15.93;;;;;;;;;;5073197;28;20025;-66
2022/09/10 03:43:39;;;;;;;19.42;14.05;;;;;;;;;;5072769;28;20036;-66
2022/09/10 03:46:07;;;;;;;16.92;12.48;;;;;;;;;;5055072;28;20031;-66
2022/09/10 03:48:38;;;;;;;16.88;11.30;;;;;;;;;;5055117;28;20035;-66
2022/09/10 03:51:04;;;;;;;14.40;11.23;;;;;;;;;;5055004;28;20094;-66
2022/09/10 03:53:30;;;;;;;12.90;10.30;;;;;;;;;;5055025;28;20032;-66
2022/09/10 03:55:55;;;;;;;11.52;9.43;;;;;;;;;;5055093;28;20025;-66
2022/09/10 03:58:21;;;;;;;11.98;9.32;;;;;;;;;;5055054;28;20023;-66
2022/09/10 04:00:46;;;;;;;9.95;8.82;;;;;;;;;;5054997;28;20036;-66
2022/09/10 04:03:13;;;;;;;9.75;8.75;;;;;;;;;;5073255;28;20025;-62
2022/09/10 04:05:42;;;;;;;9.20;8.30;;;;;;;;;;5055162;28;20111;-62
2022/09/10 04:08:09;;;;;;;9.50;7.50;;;;;;;;;;5071663;28;20035;-62
2022/09/10 04:10:34;;;;;;;9.82;7.78;;;;;;;;;;5038404;28;20024;-62
2022/09/10 04:13:00;;;;;;;8.73;7.47;;;;;;;;;;5054956;28;20086;-63
2022/09/10 04:15:25;;;;;;;8.05;7.35;;;;;;;;;;5055005;28;20095;-63
2022/09/10 04:17:53;;;;;;;10.90;6.63;;;;;;;;;;5057313;28;20028;-63
2022/09/10 04:20:22;;;;;;;10.48;6.65;;;;;;;;;;5075194;28;20021;-63
2022/09/10 04:22:52;;;;;;;10.20;6.00;;;;;;;;;;5075422;28;20082;-63
2022/09/10 04:25:18;;;;;;;7.30;5.55;;;;;;;;;;5058362;28;20056;-63
2022/09/10 04:27:45;;;;;;;7.75;5.95;;;;;;;;;;5076612;28;20107;-63
2022/09/10 04:30:11;;;;;;;6.78;5.20;;;;;;;;;;5075309;28;20031;-62
2022/09/10 04:32:37;;;;;;;5.75;4.75;;;;;;;;;;5058259;28;20372;-63
2022/09/10 04:35:04;;;;;;;6.45;4.70;;;;;;;;;;5058482;28;20368;-63
2022/09/10 04:37:30;;;;;;;4.35;4.05;;;;;;;;;;5058186;28;20052;-63
2022/09/10 04:39:55;;;;;;;7.22;4.18;;;;;;;;;;5058078;28;20399;-62
2022/09/10 04:42:21;;;;;;;4.90;4.47;;;;;;;;;;5058169;28;20091;-63
2022/09/10 04:44:48;;;;;;;4.55;4.15;;;;;;;;;;5074691;28;20119;-62
2022/09/10 04:47:14;;;;;;;5.70;4.10;;;;;;;;;;5058278;28;20021;-62
2022/09/10 04:49:39;;;;;;;4.68;4.28;;;;;;;;;;5074694;28;20052;-62
2022/09/10 04:52:04;;;;;;;5.15;4.65;;;;;;;;;;5057793;28;20048;-62
2022/09/10 04:54:32;;;;;;;5.22;4.68;;;;;;;;;;5057898;28;20027;-62
2022/09/10 04:56:58;;;;;;;4.85;4.45;;;;;;;;;;5074517;28;20020;-62
2022/09/10 04:59:24;;;;;;;5.55;4.40;;;;;;;;;;5076022;28;20104;-62
2022/09/10 05:01:49;;;;;;;4.60;4.13;;;;;;;;;;5041187;28;20112;-62
2022/09/10 05:04:16;;;;;;;4.53;4.20;;;;;;;;;;5057679;28;20036;-63
2022/09/10 05:06:41;;;;;;;4.13;3.83;;;;;;;;;;5057856;28;20361;-62
2022/09/10 05:09:08;;;;;;;3.92;3.60;;;;;;;;;;5057593;28;20028;-62
2022/09/10 05:11:33;;;;;;;3.60;3.28;;;;;;;;;;5057523;28;20491;-63
2022/09/10 05:13:59;;;;;;;3.72;3.35;;;;;;;;;;5075746;28;20461;-62
2022/09/10 05:16:29;;;;;;;3.00;2.80;;;;;;;;;;5041883;28;20078;-62
2022/09/10 05:18:55;;;;;;;2.90;2.80;;;;;;;;;;5074136;28;20021;-62
2022/09/10 05:21:22;;;;;;;3.95;2.78;;;;;;;;;;5057363;28;20111;-62
2022/09/10 05:23:49;;;;;;;3.78;3.13;;;;;;;;;;5057619;28;20032;-63
2022/09/10 05:26:15;;;;;;;5.18;3.38;;;;;;;;;;5057204;28;20495;-63
2022/09/10 05:28:41;;;;;;;3.40;2.90;;;;;;;;;;5073569;28;20024;-62
2022/09/10 05:31:08;;;;;;;2.53;2.33;;;;;;;;;;5057243;28;20013;-63
2022/09/10 05:33:35;;;;;;;2.20;2.00;;;;;;;;;;5073800;28;20028;-63
2022/09/10 05:36:00;;;;;;;2.10;1.90;;;;;;;;;;5075336;28;20035;-63
2022/09/10 05:38:27;;;;;;;2.28;2.17;;;;;;;;;;5075287;28;20035;-62
2022/09/10 05:40:53;;;;;;;2.38;2.20;;;;;;;;;;5058353;28;20009;-62
2022/09/10 05:43:20;;;;;;;2.25;1.48;;;;;;;;;;5075146;28;20067;-63
2022/09/10 05:45:46;;;;;;;2.28;1.95;;;;;;;;;;5057098;28;20445;-62
2022/09/10 05:48:12;;;;;;;1.80;1.70;;;;;;;;;;5057686;28;20384;-63
2022/09/10 05:50:39;;;;;;;1.80;1.70;;;;;;;;;;5056671;28;20131;-62
2022/09/10 05:53:05;;;;;;;1.63;1.52;;;;;;;;;;5056795;28;20436;-62
2022/09/10 05:55:32;;;;;;;1.70;1.60;;;;;;;;;;5056768;28;20094;-63
2022/09/10 05:57:58;;;;;;;1.40;1.30;;;;;;;;;;5073322;28;20033;-62
2022/09/10 06:00:24;;;;;;;1.55;1.45;;;;;;;;;;5056941;28;20081;-62
2022/09/10 06:02:59;;;;;;;1.40;1.30;;;;;;;;;;5074469;28;20020;-63
2022/09/10 06:05:51;;;;;;;1.38;1.27;;;;;;;;;;5073862;28;20097;-63
2022/09/10 06:08:20;;;;;;;1.58;1.40;;;;;;;;;;5073406;28;20017;-62
2022/09/10 06:10:59;;;;;;;1.50;1.40;;;;;;;;;;5056447;28;20059;-63
2022/09/10 06:13:26;;;;;;;1.38;1.27;;;;;;;;;;5056752;28;20060;-63
2022/09/10 06:15:52;;;;;;;1.60;1.50;;;;;;;;;;5056595;28;20043;-63
2022/09/10 06:18:18;;;;;;;1.20;1.20;;;;;;;;;;5074517;28;20040;-63
2022/09/10 06:20:49;;;;;;;1.63;1.52;;;;;;;;;;5073149;28;20515;-63
2022/09/10 06:23:15;;;;;;;;;;;;;;;;;;5056647;28;20028;-63
2022/09/10 06:25:41;;;;;;;1.50;1.40;;;;;;;;;;5072762;28;19927;-62
2022/09/10 06:28:07;;;;;;;1.98;1.88;;;;;;;;;;5056139;28;20267;-63
2022/09/10 06:30:32;;;;;;;2.00;1.90;;;;;;;;;;5074512;28;20024;-63
2022/09/10 06:32:58;;;;;;;2.10;1.73;;;;;;;;;;5056001;28;20112;-62
2022/09/10 06:35:26;;;;;;;1.90;1.63;;;;;;;;;;5073235;28;20023;-62
2022/09/10 06:37:53;;;;;;;2.67;2.13;;;;;;;;;;5072623;28;20044;-63
2022/09/10 06:40:20;;;;;;;2.63;2.10;;;;;;;;;;5072200;28;20024;-62
2022/09/10 06:42:46;;;;;;;2.08;1.83;;;;;;;;;;5055952;28;20116;-63
2022/09/10 06:45:11;;;;;;;2.47;2.28;;;;;;;;;;5074336;28;20115;-62
2022/09/10 06:47:46;;;;;;;2.45;2.25;;;;;;;;;;5074341;28;20032;-62
2022/09/10 06:50:13;;;;;;;2.67;2.30;;;;;;;;;;5072793;28;20024;-63
2022/09/10 06:52:42;;;;;;;3.42;2.40;;;;;;;;;;5055710;28;20098;-63
2022/09/10 06:55:11;;;;;;;2.38;2.17;;;;;;;;;;5072410;28;20033;-63
2022/09/10 06:57:39;;;;;;;1.98;1.77;;;;;;;;;;5073649;28;20047;-63
2022/09/10 07:00:06;;;;;;;1.80;1.58;;;;;;;;;;5055650;28;20481;-62
2022/09/10 07:02:32;;;;;;;2.08;1.88;;;;;;;;;;5072910;28;20356;-62
2022/09/10 07:04:58;;;;;;;2.58;2.38;;;;;;;;;;5056085;28;20127;-62
2022/09/10 07:07:24;;;;;;;4.18;3.40;;;;;;;;;;5056454;28;20012;-64
2022/09/10 07:09:49;;;;;;;2.53;1.90;;;;;;;;;;5055523;28;20020;-64
2022/09/10 07:12:16;;;;;;;2.00;1.90;;;;;;;;;;5055510;28;20047;-62
2022/09/10 07:14:42;;;;;;;2.10;2.00;;;;;;;;;;5048397;22;20437;-67
2022/09/10 07:17:09;;;;;;;4.97;2.47;;;;;;;;;;5052165;28;20021;-67
2022/09/10 07:19:39;;;;;;;8.35;4.55;;;;;;;;;;5035533;28;20013;-68
2022/09/10 07:22:11;;;;;;;8.35;4.30;;;;;;;;;;5035525;28;20473;-68
2022/09/10 07:24:37;;;;;;;6.45;3.92;;;;;;;;;;5052116;28;20036;-68
2022/09/10 07:27:09;;;;;;;;;;;;;;;;;;5020164;28;20029;-68
2022/09/10 07:29:36;;;;;;;2.50;2.30;;;;;;;;;;5035457;28;19909;-69
2022/09/10 07:32:03;;;;;;;2.80;2.60;;;;;;;;;;5051997;28;20083;-69
2022/09/10 07:34:29;;;;;;;2.75;2.55;;;;;;;;;;5051993;28;20594;-68
2022/09/10 07:36:55;;;;;;;3.50;2.90;;;;;;;;;;5051990;28;20025;-68
2022/09/10 07:39:22;;;;;;;3.25;3.05;;;;;;;;;;5051968;28;20404;-67
2022/09/10 07:41:47;;;;;;;3.20;2.92;;;;;;;;;;5053195;28;20029;-68
2022/09/10 07:44:15;;;;;;;3.45;3.15;;;;;;;;;;5051890;28;20028;-68
2022/09/10 07:46:43;;;;;;;5.07;2.90;;;;;;;;;;5052366;28;20017;-68
2022/09/10 07:49:11;;;;;;;3.30;3.10;;;;;;;;;;5035272;28;20079;-68
2022/09/10 07:51:39;;;;;;;3.28;3.00;;;;;;;;;;5054292;28;20032;-68
2022/09/10 07:54:05;;;;;;;3.45;3.28;;;;;;;;;;5055729;28;20025;-68
2022/09/10 07:56:41;;;;;;;3.65;3.35;;;;;;;;;;5039400;28;20103;-67
2022/09/10 07:59:09;;;;;;;3.22;3.03;;;;;;;;;;5039025;28;20396;-68
2022/09/10 08:01:40;;;;;;;4.07;3.40;;;;;;;;;;5055612;28;20028;-67
2022/09/10 08:04:06;;;;;;;3.50;3.30;;;;;;;;;;5055556;28;20048;-67
2022/09/10 08:06:34;;;;;;;3.40;3.20;;;;;;;;;;5055447;28;20017;-67
2022/09/10 08:09:06;;;;;;;3.67;3.38;;;;;;;;;;5055644;28;20136;-68
2022/09/10 08:11:33;;;;;;;3.92;3.17;;;;;;;;;;5079731;22;20052;-63
2022/09/10 08:14:00;;;;;;;3.60;3.30;;;;;;;;;;5055587;28;20022;-62
2022/09/10 08:16:27;;;;;;;3.13;2.60;;;;;;;;;;5055172;28;20040;-62
2022/09/10 08:18:56;;;;;;;2.97;2.63;;;;;;;;;;5055612;28;20017;-63
2022/09/10 08:21:23;;;;;;;2.90;2.70;;;;;;;;;;5055223;28;20400;-62
2022/09/10 08:23:51;;;;;;;3.97;3.00;;;;;;;;;;5055208;28;20028;-62
2022/09/10 08:26:17;;;;;;;3.42;3.00;;;;;;;;;;5055019;28;20120;-62
2022/09/10 08:28:46;;;;;;;3.60;3.28;;;;;;;;;;5055698;28;20017;-63
2022/09/10 08:31:15;;;;;;;3.45;3.10;;;;;;;;;;5055643;28;20036;-63
2022/09/10 08:33:49;;;;;;;3.33;3.03;;;;;;;;;;5056222;28;20461;-62
2022/09/10 08:36:16;;;;;;;3.42;3.22;;;;;;;;;;5054814;28;20029;-62
2022/09/10 08:38:42;;;;;;;3.47;3.17;;;;;;;;;;5054926;28;20025;-62
2022/09/10 08:41:13;;;;;;;2.72;2.53;;;;;;;;;;5054957;28;20029;-62
2022/09/10 08:43:52;;;;;;;2.80;2.60;;;;;;;;;;5055420;28;20086;-62
2022/09/10 08:46:19;;;;;;;;;;;;;;;;;;5055387;28;20568;-62
2022/09/10 08:48:47;;;;;;;2.97;2.78;;;;;;;;;;5054955;28;19962;-63
2022/09/10 08:51:17;;;;;;;2.97;2.78;;;;;;;;;;5054656;28;20029;-62
2022/09/10 08:53:43;;;;;;;2.78;2.58;;;;;;;;;;5054917;28;20025;-62
2022/09/10 08:56:12;;;;;;;2.45;2.35;;;;;;;;;;5054567;28;20036;-62
2022/09/10 08:58:41;;;;;;;2.58;2.45;;;;;;;;;;5054534;28;20028;-62
2022/09/10 09:01:11;;;;;;;2.40;2.30;;;;;;;;;;5054258;28;20123;-63
2022/09/10 09:03:39;;;;;;;2.08;1.98;;;;;;;;;;5053679;28;20200;-63
2022/09/10 09:06:07;;;;;;;2.03;1.92;;;;;;;;;;5054346;28;20022;-62
2022/09/10 09:08:47;;;;;;;2.40;2.17;;;;;;;;;;5055298;28;20409;-63
2022/09/10 09:11:30;;;;;;;2.10;2.00;;;;;;;;;;5066812;28;20040;-62
2022/09/10 09:14:02;;;;;;;1.98;1.88;;;;;;;;;;5074603;28;20075;-63
2022/09/10 09:16:43;;;;;;;1.75;1.65;;;;;;;;;;5074197;28;20443;-62
2022/09/10 09:19:16;;;;;;;2.13;1.95;;;;;;;;;;5074124;28;20514;-62
2022/09/10 09:21:47;;;;;;;1.88;1.77;;;;;;;;;;5057400;28;20387;-63
2022/09/10 09:24:33;;;;;;;2.47;2.38;;;;;;;;;;5074034;28;20043;-62
2022/09/10 09:27:01;;;;;;;2.70;2.50;;;;;;;;;;5050000;28;20569;-61
2022/09/10 09:29:34;;;;;;;2.67;2.05;;;;;;;;;;5073903;28;20062;-64
2022/09/10 09:32:03;;;;;;;2.40;2.22;;;;;;;;;;5057144;28;20028;-62
2022/09/10 09:34:43;;;;;;;2.50;2.40;;;;;;;;;;5073847;28;20032;-62
2022/09/10 09:37:20;;;;;;;2.30;2.20;;;;;;;;;;5057378;28;20028;-62
2022/09/10 09:40:04;;;;;;;2.13;2.03;;;;;;;;;;5074043;28;20075;-63
2022/09/10 09:42:39;;;;;;;2.72;2.53;;;;;;;;;;5073636;28;20020;-62
2022/09/10 09:45:15;;;;;;;3.00;2.80;;;;;;;;;;5056882;28;20115;-63
2022/09/10 09:47:43;;;;;;;2.83;2.63;;;;;;;;;;5056928;28;20052;-62
2022/09/10 09:50:10;;;;;;;2.83;2.63;;;;;;;;;;5075112;28;20023;-63
2022/09/10 09:52:37;;;;;;;2.40;2.30;;;;;;;;;;5074745;28;20479;-62
2022/09/10 09:55:05;;;;;;;2.42;2.28;;;;;;;;;;5074966;28;20020;-63
2022/09/10 09:57:31;;;;;;;2.50;2.30;;;;;;;;;;5074887;28;20017;-63
2022/09/10 09:59:56;;;;;;;2.55;2.35;;;;;;;;;;5057042;28;20066;-63
2022/09/10 10:02:23;;;;;;;2.17;2.08;;;;;;;;;;5075057;28;20062;-63
2022/09/10 10:05:01;;;;;;;2.38;2.28;;;;;;;;;;5073242;28;20020;-63
2022/09/10 10:07:30;;;;;;;2.35;2.25;;;;;;;;;;5074410;28;20036;-63
2022/09/10 10:09:55;;;;;;;2.22;2.10;;;;;;;;;;5074525;28;20024;-63
2022/09/10 10:12:21;;;;;;;2.78;2.58;;;;;;;;;;5074622;28;20025;-63
2022/09/10 10:14:47;;;;;;;2.08;1.98;;;;;;;;;;5073304;28;20490;-63
2022/09/10 10:17:29;;;;;;;2.80;2.42;;;;;;;;;;5056782;28;20480;-63
2022/09/10 10:20:00;;;;;;;2.30;2.20;;;;;;;;;;5074788;28;20051;-63
2022/09/10 10:22:26;;;;;;;2.45;2.33;;;;;;;;;;5074683;28;20462;-63
2022/09/10 10:24:53;;;;;;;2.90;2.60;;;;;;;;;;5056509;28;20379;-63
2022/09/10 10:27:31;;;;;;;2.42;2.30;;;;;;;;;;5074067;28;20042;-63
2022/09/10 10:30:03;;;;;;;2.58;2.20;;;;;;;;;;5074293;28;20085;-63
2022/09/10 10:32:40;;;;;;;2.60;2.40;;;;;;;;;;5074529;28;20032;-63
2022/09/10 10:35:25;;;;;;;2.58;2.38;;;;;;;;;;5056066;28;20113;-63
2022/09/10 10:37:59;;;;;;;2.67;2.47;;;;;;;;;;5073894;28;20507;-63
2022/09/10 10:40:30;;;;;;;2.88;2.67;;;;;;;;;;5074126;28;20460;-63
2022/09/10 10:43:14;;;;;;;2.90;2.30;;;;;;;;;;5074093;28;20078;-63
2022/09/10 10:45:55;;;;;;;2.10;2.00;;;;;;;;;;5074027;28;20468;-63
2022/09/10 10:48:20;;;;;;;;;;;;;;;;;;5074497;28;20039;-63
2022/09/10 10:50:51;;;;;;;3.47;2.70;;;;;;;;;;5074051;28;19908;-63
2022/09/10 10:53:35;;;;;;;3.20;2.88;;;;;;;;;;5073744;28;20028;-63
2022/09/10 10:56:01;;;;;;;2.13;2.03;;;;;;;;;;5074213;28;20024;-63
2022/09/10 10:58:32;;;;;;;2.60;2.40;;;;;;;;;;5073648;28;20020;-63
2022/09/10 11:01:01;;;;;;;2.70;2.60;;;;;;;;;;5074184;28;20096;-63
2022/09/10 11:03:30;;;;;;;2.72;2.53;;;;;;;;;;5073902;28;20052;-62
2022/09/10 11:06:02;;;;;;;2.88;2.67;;;;;;;;;;5073819;28;20033;-63
2022/09/10 11:08:37;;;;;;;2.67;2.47;;;;;;;;;;5073552;28;20440;-63
2022/09/10 11:11:13;;;;;;;2.67;2.53;;;;;;;;;;5073658;28;20400;-63
2022/09/10 11:13:42;;;;;;;2.70;2.50;;;;;;;;;;5073790;28;20162;-63
2022/09/10 11:16:13;;;;;;;2.65;2.45;;;;;;;;;;5074049;28;20354;-63
2022/09/10 11:18:39;;;;;;;2.90;2.60;;;;;;;;;;5073428;28;20037;-63
2022/09/10 11:21:13;;;;;;;2.60;2.40;;;;;;;;;;5072162;28;20025;-62
2022/09/10 11:23:44;;;;;;;2.70;2.53;;;;;;;;;;5055807;28;20039;-63
2022/09/10 11:26:09;;;;;;;;;;;;;;;;;;5075181;28;20028;-63
2022/09/10 11:28:38;;;;;;;3.30;3.00;;;;;;;;;;5093211;28;19905;-63
2022/09/10 11:31:10;;;;;;;3.65;3.30;;;;;;;;;;5077730;28;20024;-63
2022/09/10 11:33:40;;;;;;;2.40;2.30;;;;;;;;;;5077664;28;20036;-63
2022/09/10 11:36:06;;;;;;;2.70;2.50;;;;;;;;;;5077656;28;20028;-63
2022/09/10 11:38:51;;;;;;;2.25;2.15;;;;;;;;;;5077592;28;20036;-63
2022/09/10 11:41:21;;;;;;;2.58;2.35;;;;;;;;;;5076902;28;20044;-63
2022/09/10 11:43:58;;;;;;;2.65;2.45;;;;;;;;;;5076342;28;20020;-63
2022/09/10 11:46:35;;;;;;;2.53;2.42;;;;;;;;;;5083932;22;20051;-63
2022/09/10 11:49:04;;;;;;;2.33;2.13;;;;;;;;;;5039622;28;20075;-63
2022/09/10 11:51:32;;;;;;;2.80;2.50;;;;;;;;;;5057101;28;20017;-63
2022/09/10 11:53:59;;;;;;;2.78;2.58;;;;;;;;;;5057015;28;20036;-62
2022/09/10 11:56:28;;;;;;;2.50;2.30;;;;;;;;;;5039494;28;20086;-63
2022/09/10 11:59:11;;;;;;;2.78;2.58;;;;;;;;;;5057141;28;20453;-63
2022/09/10 12:01:56;;;;;;;2.20;2.10;;;;;;;;;;5056885;28;20025;-62
2022/09/10 12:04:40;;;;;;;2.28;2.03;;;;;;;;;;5057351;28;20037;-63
2022/09/10 12:07:31;;;;;;;1.40;1.30;;;;;;;;;;5056976;28;20057;-63
2022/09/10 12:10:00;;;;;;;1.75;1.65;;;;;;;;;;5052675;28;20487;-63
2022/09/10 12:12:30;;;;;;;2.25;1.80;;;;;;;;;;5056922;28;20048;-63
2022/09/10 12:14:55;;;;;;;;;;;;;;;;;;5057043;28;20025;-62
2022/09/10 12:17:26;;;;;;;1.65;1.55;;;;;;;;;;5057125;28;20340;-63
2022/09/10 12:19:51;;;;;;;;;;;;;;;;;;5056955;28;20392;-63
2022/09/10 12:22:23;;;;;;;2.30;2.10;;;;;;;;;;5056539;28;19904;-63
2022/09/10 12:24:53;;;;;;;2.03;1.92;;;;;;;;;;5056765;28;20115;-63
2022/09/10 12:27:19;;;;;;;3.83;1.98;;;;;;;;;;5056699;28;20041;-63
2022/09/10 12:29:44;;;;;;;2.10;1.90;;;;;;;;;;5056626;28;20024;-62
2022/09/10 12:32:18;;;;;;;2.15;1.77;;;;;;;;;;5056600;28;20421;-63
2022/09/10 12:34:47;;;;;;;6.78;2.35;;;;;;;;;;5056503;28;20039;-62
2022/09/10 12:37:20;;;;;;;2.35;2.22;;;;;;;;;;5055173;28;20017;-63
2022/09/10 12:39:47;;;;;;;6.55;4.38;;;;;;;;;;5056346;28;20052;-63
2022/09/10 12:42:22;;;;;;;10.13;8.55;;;;;;;;;;5056109;28;20017;-63
2022/09/10 12:44:48;;;;;;;3.45;3.15;;;;;;;;;;5055933;28;20112;-63
2022/09/10 12:47:16;;;;;;;3.30;2.60;;;;;;;;;;5055933;28;20465;-63
2022/09/10 12:49:46;;;;;;;3.03;2.75;;;;;;;;;;5056519;28;20388;-63
2022/09/10 12:52:15;;;;;;;2.20;2.10;;;;;;;;;;5056225;28;20021;-63
2022/09/10 12:54:47;;;;;;;2.33;2.13;;;;;;;;;;5055864;28;20013;-62
2022/09/10 12:57:27;;;;;;;2.25;2.08;;;;;;;;;;5056374;28;20028;-62
2022/09/10 12:59:57;;;;;;;2.50;2.30;;;;;;;;;;5056047;28;20045;-63
2022/09/10 13:02:28;;;;;;;2.22;2.10;;;;;;;;;;5056026;28;20436;-63
2022/09/10 13:04:53;;;;;;;;;;;;;;;;;;5056387;28;20044;-63
2022/09/10 13:07:20;;;;;;;2.60;2.20;;;;;;;;;;5055871;28;19999;-62
2022/09/10 13:09:54;;;;;;;2.90;2.08;;;;;;;;;;5055614;28;20064;-63
2022/09/10 13:12:21;;;;;;;2.25;2.05;;;;;;;;;;5055540;28;20028;-64
2022/09/10 13:14:49;;;;;;;2.30;2.20;;;;;;;;;;5055468;28;20494;-63
2022/09/10 13:17:33;;;;;;;2.60;2.40;;;;;;;;;;5055752;28;20033;-62
2022/09/10 13:20:11;;;;;;;2.63;2.40;;;;;;;;;;5055975;28;20057;-63
2022/09/10 13:22:55;;;;;;;2.65;2.45;;;;;;;;;;5037617;28;20071;-63
2022/09/10 13:25:23;;;;;;;3.88;2.50;;;;;;;;;;5037414;28;20111;-63
2022/09/10 13:27:49;;;;;;;4.07;3.55;;;;;;;;;;5054027;28;20381;-63
2022/09/10 13:30:16;;;;;;;2.58;2.38;;;;;;;;;;5053954;28;20025;-63
2022/09/10 13:32:43;;;;;;;1.90;1.80;;;;;;;;;;5055212;28;20013;-62
2022/09/10 13:35:27;;;;;;;2.13;1.60;;;;;;;;;;5037481;28;20043;-63
2022/09/10 13:37:52;;;;;;;2.05;1.95;;;;;;;;;;5055648;28;20028;-62
2022/09/10 13:40:27;;;;;;;2.00;1.90;;;;;;;;;;5055088;28;20354;-63
2022/09/10 13:43:12;;;;;;;2.22;2.13;;;;;;;;;;5054973;28;20020;-63
2022/09/10 13:45:39;;;;;;;2.00;1.90;;;;;;;;;;5055418;28;20083;-63
2022/09/10 13:48:11;;;;;;;2.88;2.67;;;;;;;;;;5054732;28;20485;-63
2022/09/10 13:50:39;;;;;;;2.50;2.30;;;;;;;;;;5036943;28;20036;-62
2022/09/10 13:53:07;;;;;;;2.80;2.60;;;;;;;;;;5055068;28;20032;-62
2022/09/10 13:55:33;;;;;;;3.28;2.70;;;;;;;;;;5054984;28;20040;-63
2022/09/10 13:58:11;;;;;;;2.78;2.58;;;;;;;;;;5054990;28;20052;-62
2022/09/10 14:00:53;;;;;;;2.83;2.60;;;;;;;;;;5037374;28;20358;-63
2022/09/10 14:03:20;;;;;;;2.78;2.25;;;;;;;;;;5054902;28;20086;-63
2022/09/10 14:05:48;;;;;;;2.60;2.42;;;;;;;;;;5054495;28;20119;-63
2022/09/10 14:08:20;;;;;;;2.60;2.50;;;;;;;;;;5036791;28;20037;-62
2022/09/10 14:10:48;;;;;;;2.85;2.08;;;;;;;;;;5054728;28;20079;-63
2022/09/10 14:13:15;;;;;;;2.78;1.92;;;;;;;;;;5054399;28;20013;-63
2022/09/10 14:15:41;;;;;;;2.75;2.03;;;;;;;;;;5036868;28;20465;-62
2022/09/10 14:18:08;;;;;;;1.88;1.77;;;;;;;;;;5054304;28;20039;-62
2022/09/10 14:20:34;;;;;;;1.92;1.83;;;;;;;;;;5054530;28;20029;-62
2022/09/10 14:23:03;;;;;;;1.83;1.73;;;;;;;;;;5054505;28;20043;-63
2022/09/10 14:25:31;;;;;;;2.08;1.98;;;;;;;;;;5054103;28;20033;-63
2022/09/10 14:28:14;;;;;;;1.92;1.83;;;;;;;;;;5036282;28;20511;-63
2022/09/10 14:30:40;;;;;;;2.10;2.00;;;;;;;;;;5036339;28;20025;-63
2022/09/10 14:33:24;;;;;;;3.25;2.28;;;;;;;;;;5054323;28;20401;-62
2022/09/10 14:35:51;;;;;;;2.50;2.30;;;;;;;;;;5054281;28;20056;-63
2022/09/10 14:38:27;;;;;;;2.40;2.30;;;;;;;;;;5053986;28;20382;-63
2022/09/10 14:40:57;;;;;;;2.28;2.17;;;;;;;;;;5054203;28;20116;-63
2022/09/10 14:43:28;;;;;;;2.47;2.37;;;;;;;;;;5054163;28;20035;-63
2022/09/10 14:45:54;;;;;;;2.60;2.40;;;;;;;;;;5053784;28;20112;-63
2022/09/10 14:48:39;;;;;;;2.30;2.10;;;;;;;;;;5054058;28;20511;-62
2022/09/10 14:51:16;;;;;;;2.17;2.08;;;;;;;;;;5054038;28;20017;-63
2022/09/10 14:53:42;;;;;;;2.92;2.40;;;;;;;;;;5054015;28;20381;-63
2022/09/10 14:56:11;;;;;;;2.20;2.10;;;;;;;;;;5053716;28;20404;-62